createdAt,value
2018-04-16T00:00:14.186Z,12.30
2018-04-16T00:02:41.629Z,12.30
2018-04-16T00:05:09.860Z,12.50
2018-04-16T00:07:37.324Z,12.50
2018-04-16T00:10:04.775Z,12.50
2018-04-16T00:12:32.356Z,12.60
2018-04-16T00:14:59.801Z,12.60
2018-04-16T00:17:28.016Z,12.70
2018-04-16T00:19:55.480Z,12.60
2018-04-16T00:22:22.929Z,12.70
2018-04-16T00:24:51.145Z,12.50
2018-04-16T00:27:18.616Z,12.50
2018-04-16T00:29:46.072Z,12.50
2018-04-16T00:32:20.133Z,12.30
2018-04-16T00:34:53.401Z,12.30
2018-04-16T00:37:26.660Z,12.30
2018-04-16T00:39:59.932Z,12.20
2018-04-16T00:45:40.007Z,12.00
2018-04-16T00:48:14.020Z,11.90
2018-04-16T00:50:48.016Z,11.90
2018-04-16T00:53:21.321Z,11.90
2018-04-16T00:55:54.373Z,11.90
2018-04-16T00:58:27.609Z,11.80
2018-04-16T01:01:00.904Z,11.80
2018-04-16T01:03:34.153Z,11.80
2018-04-16T01:06:07.503Z,11.80
2018-04-16T01:08:40.720Z,11.70
2018-04-16T01:14:15.876Z,11.60
2018-04-16T01:16:49.899Z,11.50
2018-04-16T01:19:24.019Z,11.50
2018-04-16T01:21:57.990Z,11.50
2018-04-16T01:24:31.216Z,11.50
2018-04-16T01:27:04.394Z,11.40
2018-04-16T01:29:37.496Z,11.40
2018-04-16T01:32:10.656Z,11.40
2018-04-16T01:34:44.628Z,11.30
2018-04-16T01:37:17.817Z,11.20
2018-04-16T01:39:51.053Z,11.20
2018-04-16T01:42:24.326Z,11.10
2018-04-16T01:44:57.516Z,11.10
2018-04-16T01:47:31.488Z,11.00
2018-04-16T01:50:04.797Z,11.00
2018-04-16T01:52:38.069Z,10.90
2018-04-16T01:55:11.284Z,10.90
2018-04-16T01:57:44.501Z,10.80
2018-04-16T02:00:17.688Z,10.80
2018-04-16T02:02:50.912Z,10.70
2018-04-16T02:05:24.152Z,10.70
2018-04-16T02:07:57.404Z,10.70
2018-04-16T02:10:30.600Z,10.70
2018-04-16T02:13:03.777Z,10.60
2018-04-16T02:15:37.692Z,10.60
2018-04-16T02:18:10.904Z,10.50
2018-04-16T02:20:44.853Z,10.50
2018-04-16T02:23:17.997Z,10.50
2018-04-16T02:25:51.193Z,10.40
2018-04-16T02:28:24.408Z,10.40
2018-04-16T02:30:57.717Z,10.30
2018-04-16T02:33:30.961Z,10.30
2018-04-16T02:36:04.896Z,10.20
2018-04-16T02:38:38.919Z,10.20
2018-04-16T02:41:12.132Z,10.20
2018-04-16T02:43:45.333Z,10.20
2018-04-16T02:46:18.569Z,10.10
2018-04-16T02:48:51.792Z,10.10
2018-04-16T02:51:25.027Z,10.10
2018-04-16T02:53:58.849Z,10.00
2018-04-16T02:56:32.760Z,10.00
2018-04-16T02:59:06.756Z,9.90
2018-04-16T03:01:40.017Z,9.90
2018-04-16T03:04:13.093Z,9.90
2018-04-16T03:06:47.060Z,9.80
2018-04-16T03:09:20.255Z,9.80
2018-04-16T03:11:53.479Z,9.80
2018-04-16T03:14:26.759Z,9.80
2018-04-16T03:16:59.872Z,9.80
2018-04-16T03:19:33.125Z,9.70
2018-04-16T03:22:06.340Z,9.70
2018-04-16T03:24:39.411Z,9.70
2018-04-16T03:27:12.919Z,9.60
2018-04-16T03:29:46.092Z,9.60
2018-04-16T03:32:19.328Z,9.60
2018-04-16T03:34:52.596Z,9.60
2018-04-16T03:40:28.592Z,9.50
2018-04-16T03:43:02.595Z,9.50
2018-04-16T03:45:35.789Z,9.40
2018-04-16T03:48:10.528Z,9.40
2018-04-16T03:50:43.557Z,9.40
2018-04-16T03:53:17.952Z,9.40
2018-04-16T03:55:47.888Z,9.40
2018-04-16T03:58:15.347Z,9.40
2018-04-16T04:00:42.808Z,9.40
2018-04-16T04:03:10.249Z,9.50
2018-04-16T04:05:37.757Z,9.60
2018-04-16T04:08:05.201Z,9.70
2018-04-16T04:10:32.644Z,9.70
2018-04-16T04:13:00.872Z,9.70
2018-04-16T04:15:28.317Z,9.70
2018-04-16T04:17:55.824Z,9.70
2018-04-16T04:20:23.296Z,9.60
2018-04-16T04:23:02.688Z,9.60
2018-04-16T04:25:42.884Z,9.60
2018-04-16T04:28:22.374Z,9.60
2018-04-16T04:30:49.818Z,9.60
2018-04-16T04:33:17.264Z,9.60
2018-04-16T04:35:44.776Z,9.60
2018-04-16T04:38:12.216Z,9.60
2018-04-16T04:40:39.720Z,9.60
2018-04-16T04:43:07.169Z,9.60
2018-04-16T04:45:34.617Z,9.70
2018-04-16T04:48:02.126Z,9.70
2018-04-16T04:50:29.573Z,9.80
2018-04-16T04:52:57.179Z,9.80
2018-04-16T04:55:24.578Z,9.80
2018-04-16T04:57:52.789Z,9.90
2018-04-16T05:00:20.357Z,9.90
2018-04-16T05:02:47.802Z,10.00
2018-04-16T05:05:16.053Z,10.10
2018-04-16T05:07:43.620Z,10.10
2018-04-16T05:10:11.069Z,10.20
2018-04-16T05:12:38.516Z,10.20
2018-04-16T05:15:05.998Z,10.20
2018-04-16T05:17:33.445Z,10.30
2018-04-16T05:20:01.691Z,10.20
2018-04-16T05:22:29.156Z,10.20
2018-04-16T05:24:56.604Z,10.20
2018-04-16T05:27:24.788Z,10.20
2018-04-16T05:29:54.240Z,10.30
2018-04-16T05:32:21.721Z,10.30
2018-04-16T05:34:49.165Z,10.30
2018-04-16T05:37:16.656Z,10.40
2018-04-16T05:39:44.116Z,10.50
2018-04-16T15:39:17.932Z,21.20
2018-04-16T15:41:45.380Z,21.10
2018-04-16T15:44:13.617Z,20.60
2018-04-16T15:46:41.084Z,20.60
2018-04-16T15:49:08.617Z,20.50
2018-04-16T15:51:36.820Z,20.20
2018-04-16T15:54:04.313Z,20.20
2018-04-16T15:56:31.763Z,20.10
2018-04-16T15:58:59.248Z,20.10
2018-04-16T16:01:26.703Z,20.20
2018-04-16T16:03:54.168Z,20.30
2018-04-16T16:06:21.609Z,20.40
2018-04-16T16:08:49.857Z,20.30
2018-04-16T16:11:17.304Z,20.30
2018-04-16T16:13:44.753Z,20.50
2018-04-16T16:16:12.258Z,20.70
2018-04-16T16:18:39.793Z,20.80
2018-04-16T16:21:07.244Z,20.60
2018-04-16T16:23:35.485Z,20.70
2018-04-16T16:26:02.946Z,20.60
2018-04-16T16:28:30.432Z,20.80
2018-04-16T16:30:57.965Z,20.80
2018-04-16T16:33:25.472Z,20.70
2018-04-16T16:35:52.945Z,20.50
2018-04-16T16:38:20.388Z,20.50
2018-04-16T16:40:47.877Z,20.30
2018-04-16T16:43:15.304Z,20.10
2018-04-16T16:45:43.535Z,19.50
2018-04-16T16:48:11.012Z,19.50
2018-04-16T16:50:38.480Z,19.40
2018-04-16T16:53:05.940Z,19.20
2018-04-16T16:55:33.423Z,19.10
2018-04-16T16:58:00.885Z,19.00
2018-04-16T17:00:28.425Z,18.80
2018-04-16T17:02:55.932Z,18.70
2018-04-16T17:05:23.392Z,18.60
2018-04-16T17:07:50.876Z,18.50
2018-04-16T17:10:18.408Z,18.40
2018-04-16T17:12:45.877Z,18.30
2018-04-16T17:15:13.316Z,18.20
2018-04-16T17:17:41.552Z,17.90
2018-04-16T17:20:09.106Z,17.90
2018-04-16T17:22:36.500Z,17.80
2018-04-16T17:25:03.957Z,17.80
2018-04-16T17:27:31.420Z,17.70
2018-04-16T17:29:58.868Z,17.60
2018-04-16T17:32:27.116Z,17.50
2018-04-16T17:34:54.568Z,17.40
2018-04-16T17:37:22.016Z,17.40
2018-04-16T17:39:49.585Z,17.40
2018-04-16T17:42:17.057Z,17.40
2018-04-16T17:44:45.261Z,17.20
2018-04-16T17:47:12.712Z,17.20
2018-04-16T17:49:40.221Z,17.20
2018-04-16T17:52:08.614Z,17.20
2018-04-16T17:54:36.073Z,17.10
2018-04-16T17:57:03.529Z,17.10
2018-04-16T17:59:30.996Z,17.00
2018-04-16T18:01:58.553Z,16.90
2018-04-16T18:04:26.060Z,16.80
2018-04-16T18:06:53.525Z,16.80
2018-04-16T18:09:20.989Z,16.70
2018-04-16T18:11:48.436Z,16.70
2018-04-16T18:14:15.915Z,16.60
2018-04-16T18:16:43.411Z,16.50
2018-04-16T18:19:10.859Z,16.40
2018-04-16T18:21:38.364Z,16.40
2018-04-16T18:24:05.812Z,16.30
2018-04-16T18:26:33.358Z,16.20
2018-04-16T18:29:00.860Z,16.20
2018-04-16T18:31:28.332Z,16.00
2018-04-16T18:33:55.864Z,16.00
2018-04-16T18:36:23.287Z,15.90
2018-04-16T18:38:50.842Z,15.80
2018-04-16T18:41:18.304Z,15.70
2018-04-16T18:46:32.597Z,15.30
2018-04-16T18:49:00.109Z,15.30
2018-04-16T18:51:27.576Z,15.20
2018-04-16T18:53:55.788Z,15.00
2018-04-16T18:56:23.253Z,15.00
2018-04-16T18:58:50.716Z,14.90
2018-04-16T19:01:18.254Z,14.90
2018-04-16T19:03:45.696Z,14.80
2018-04-16T19:06:13.148Z,14.70
2018-04-16T19:08:40.698Z,14.70
2018-04-16T19:13:45.264Z,14.70
2018-04-16T19:16:12.724Z,14.60
2018-04-16T19:18:40.244Z,14.50
2018-04-16T19:21:13.413Z,14.40
2018-04-16T19:23:40.877Z,14.40
2018-04-16T19:26:08.439Z,14.30
2018-04-16T19:28:35.893Z,14.30
2018-04-16T19:31:04.109Z,14.10
2018-04-16T19:33:37.349Z,14.10
2018-04-16T19:36:04.821Z,14.10
2018-04-16T19:38:32.346Z,14.10
2018-04-16T19:40:59.799Z,14.10
2018-04-16T19:43:28.040Z,14.00
2018-04-16T19:45:55.488Z,14.00
2018-04-16T19:48:22.936Z,14.00
2018-04-16T19:50:50.506Z,14.00
2018-04-16T19:53:18.732Z,14.00
2018-04-16T19:55:51.902Z,14.00
2018-04-16T19:58:22.311Z,14.00
2018-04-16T20:00:49.848Z,14.00
2018-04-16T20:03:22.915Z,14.10
2018-04-16T20:05:50.625Z,14.10
2018-04-16T20:08:18.074Z,14.10
2018-04-16T20:10:45.543Z,14.00
2018-04-16T20:13:12.989Z,13.90
2018-04-16T20:15:40.494Z,13.80
2018-04-16T20:18:07.976Z,13.70
2018-04-16T20:20:35.453Z,13.70
2018-04-16T20:23:02.909Z,13.60
2018-04-16T20:25:30.362Z,13.50
2018-04-16T20:27:57.825Z,13.30
2018-04-16T20:30:25.270Z,13.30
2018-04-16T20:32:53.512Z,13.10
2018-04-16T20:35:20.964Z,13.10
2018-04-16T20:37:48.424Z,13.10
2018-04-16T20:40:15.877Z,13.00
2018-04-16T20:42:44.102Z,12.80
2018-04-16T20:45:11.581Z,12.70
2018-04-16T20:47:39.040Z,12.70
2018-04-16T20:50:06.523Z,12.50
2018-04-16T20:52:33.989Z,12.50
2018-04-16T20:55:01.444Z,12.40
2018-04-16T20:57:28.935Z,12.30
2018-04-16T20:59:56.397Z,12.30
2018-04-16T21:02:23.868Z,12.30
2018-04-16T21:04:51.388Z,12.20
2018-04-16T21:07:18.793Z,12.10
2018-04-16T21:09:46.265Z,12.00
2018-04-16T21:12:13.748Z,11.90
2018-04-16T21:14:41.323Z,11.90
2018-04-16T21:17:08.777Z,11.80
2018-04-16T21:19:36.243Z,11.80
2018-04-16T21:22:03.697Z,11.80
2018-04-16T21:24:31.161Z,11.70
2018-04-16T21:26:58.612Z,11.60
2018-04-16T21:29:26.861Z,11.50
2018-04-16T21:31:54.328Z,11.50
2018-04-16T21:34:21.828Z,11.50
2018-04-16T21:36:49.282Z,11.40
2018-04-16T21:39:16.748Z,11.40
2018-04-16T21:41:44.201Z,11.30
2018-04-16T21:44:11.664Z,11.30
2018-04-16T21:46:39.112Z,11.30
2018-04-16T21:49:06.565Z,11.20
2018-04-16T21:51:34.796Z,11.10
2018-04-16T21:54:02.244Z,11.10
2018-04-16T21:56:29.716Z,11.00
2018-04-16T21:58:57.208Z,10.90
2018-04-16T22:01:24.673Z,10.90
2018-04-16T22:03:52.129Z,10.90
2018-04-16T22:06:19.685Z,10.80
2018-04-16T22:08:47.132Z,10.70
2018-04-16T22:11:15.364Z,10.70
2018-04-16T22:13:42.815Z,10.60
2018-04-16T22:16:10.321Z,10.60
2018-04-16T22:18:37.772Z,10.60
2018-04-16T22:21:05.250Z,10.60
2018-04-16T22:23:32.724Z,10.60
2018-04-16T22:26:00.196Z,10.50
2018-04-16T22:28:27.644Z,10.50
2018-04-16T22:30:55.093Z,10.50
2018-04-16T22:33:22.604Z,10.50
2018-04-16T22:35:50.064Z,10.40
2018-04-16T22:38:17.552Z,10.40
2018-04-16T22:40:44.998Z,10.40
2018-04-16T22:43:12.460Z,10.30
2018-04-16T22:45:39.926Z,10.30
2018-04-16T22:48:07.477Z,10.30
2018-04-16T22:50:35.692Z,10.10
2018-04-16T22:53:03.152Z,10.10
2018-04-16T22:55:30.604Z,10.10
2018-04-16T22:57:58.869Z,10.00
2018-04-16T23:00:26.275Z,9.90
2018-04-16T23:02:53.731Z,9.90
2018-04-16T23:05:21.942Z,9.90
2018-04-16T23:07:49.404Z,9.80
2018-04-16T23:10:16.852Z,9.80
2018-04-16T23:12:45.088Z,9.80
2018-04-16T23:15:12.532Z,9.70
2018-04-16T23:17:40.032Z,9.80
2018-04-16T23:20:07.496Z,9.70
2018-04-16T23:22:34.968Z,9.70
2018-04-16T23:25:02.441Z,9.70
2018-04-16T23:27:29.883Z,9.70
2018-04-16T23:29:57.343Z,9.60
2018-04-16T23:32:24.845Z,9.60
2018-04-16T23:34:52.324Z,9.50
2018-04-16T23:37:19.772Z,9.50
2018-04-16T23:39:47.232Z,9.40
2018-04-16T23:42:14.680Z,9.40
2018-04-16T23:44:42.904Z,9.30
2018-04-16T23:47:10.345Z,9.30
2018-04-16T23:49:37.808Z,9.30
2018-04-16T23:52:05.256Z,9.30
2018-04-16T23:54:32.741Z,9.30
2018-04-16T23:57:00.957Z,9.20
2018-04-16T23:59:31.994Z,9.20
